sensor_id;sensor_type;location;lat;lon;timestamp;P1;durP1;ratioP1;P2;durP2;ratioP2
74191;SDS011;62551;51.180;4.366;2022-08-16T00:00:20;10.88;;;7.30;;
74191;SDS011;62551;51.180;4.366;2022-08-16T00:02:48;11.50;;;8.27;;
74191;SDS011;62551;51.180;4.366;2022-08-16T00:05:15;9.82;;;7.53;;
74191;SDS011;62551;51.180;4.366;2022-08-16T00:07:44;11.32;;;8.02;;
74191;SDS011;62551;51.180;4.366;2022-08-16T00:10:12;11.15;;;7.97;;
74191;SDS011;62551;51.180;4.366;2022-08-16T00:12:41;13.27;;;9.18;;
74191;SDS011;62551;51.180;4.366;2022-08-16T00:15:10;13.35;;;9.00;;
74191;SDS011;62551;51.180;4.366;2022-08-16T00:17:39;11.18;;;8.55;;
74191;SDS011;62551;51.180;4.366;2022-08-16T00:20:07;12.40;;;9.35;;
74191;SDS011;62551;51.180;4.366;2022-08-16T00:22:35;11.93;;;8.90;;
74191;SDS011;62551;51.180;4.366;2022-08-16T00:25:05;12.38;;;9.27;;
74191;SDS011;62551;51.180;4.366;2022-08-16T00:27:32;14.55;;;9.63;;
74191;SDS011;62551;51.180;4.366;2022-08-16T00:30:00;12.70;;;9.13;;
74191;SDS011;62551;51.180;4.366;2022-08-16T00:32:27;15.23;;;9.60;;
74191;SDS011;62551;51.180;4.366;2022-08-16T00:34:54;14.55;;;10.70;;
74191;SDS011;62551;51.180;4.366;2022-08-16T00:37:22;12.65;;;9.05;;
74191;SDS011;62551;51.180;4.366;2022-08-16T00:39:49;14.25;;;9.80;;
74191;SDS011;62551;51.180;4.366;2022-08-16T00:42:18;12.98;;;10.23;;
74191;SDS011;62551;51.180;4.366;2022-08-16T00:44:48;15.00;;;9.98;;
74191;SDS011;62551;51.180;4.366;2022-08-16T00:47:17;14.18;;;9.85;;
74191;SDS011;62551;51.180;4.366;2022-08-16T00:49:45;12.55;;;9.18;;
74191;SDS011;62551;51.180;4.366;2022-08-16T00:52:12;15.32;;;10.52;;
74191;SDS011;62551;51.180;4.366;2022-08-16T00:54:39;13.98;;;10.02;;
74191;SDS011;62551;51.180;4.366;2022-08-16T00:57:06;14.80;;;10.65;;
74191;SDS011;62551;51.180;4.366;2022-08-16T00:59:35;15.23;;;10.25;;
74191;SDS011;62551;51.180;4.366;2022-08-16T01:02:05;13.73;;;9.80;;
74191;SDS011;62551;51.180;4.366;2022-08-16T01:04:33;16.40;;;10.95;;
74191;SDS011;62551;51.180;4.366;2022-08-16T01:07:01;12.90;;;10.10;;
74191;SDS011;62551;51.180;4.366;2022-08-16T01:09:29;14.80;;;10.55;;
74191;SDS011;62551;51.180;4.366;2022-08-16T01:11:57;16.08;;;11.02;;
74191;SDS011;62551;51.180;4.366;2022-08-16T01:14:25;12.25;;;10.68;;
74191;SDS011;62551;51.180;4.366;2022-08-16T01:16:55;14.57;;;10.55;;
74191;SDS011;62551;51.180;4.366;2022-08-16T01:19:25;14.80;;;10.48;;
74191;SDS011;62551;51.180;4.366;2022-08-16T01:21:55;14.18;;;10.88;;
74191;SDS011;62551;51.180;4.366;2022-08-16T01:24:27;14.77;;;10.80;;
74191;SDS011;62551;51.180;4.366;2022-08-16T01:26:57;14.60;;;11.43;;
74191;SDS011;62551;51.180;4.366;2022-08-16T01:29:27;11.85;;;10.43;;
74191;SDS011;62551;51.180;4.366;2022-08-16T01:31:55;13.93;;;10.05;;
74191;SDS011;62551;51.180;4.366;2022-08-16T01:34:22;13.07;;;11.15;;
74191;SDS011;62551;51.180;4.366;2022-08-16T01:36:55;13.65;;;11.05;;
74191;SDS011;62551;51.180;4.366;2022-08-16T01:39:22;14.75;;;10.82;;
74191;SDS011;62551;51.180;4.366;2022-08-16T01:41:51;14.52;;;10.10;;
74191;SDS011;62551;51.180;4.366;2022-08-16T01:44:18;14.98;;;10.30;;
74191;SDS011;62551;51.180;4.366;2022-08-16T01:46:46;13.70;;;10.73;;
74191;SDS011;62551;51.180;4.366;2022-08-16T01:49:15;16.75;;;10.93;;
74191;SDS011;62551;51.180;4.366;2022-08-16T01:51:45;17.17;;;10.43;;
74191;SDS011;62551;51.180;4.366;2022-08-16T01:54:12;13.20;;;10.38;;
74191;SDS011;62551;51.180;4.366;2022-08-16T01:56:39;15.38;;;11.10;;
74191;SDS011;62551;51.180;4.366;2022-08-16T01:59:09;13.77;;;10.07;;
74191;SDS011;62551;51.180;4.366;2022-08-16T02:01:37;11.10;;;9.30;;
74191;SDS011;62551;51.180;4.366;2022-08-16T02:04:04;13.45;;;9.80;;
74191;SDS011;62551;51.180;4.366;2022-08-16T02:06:31;12.02;;;9.80;;
74191;SDS011;62551;51.180;4.366;2022-08-16T02:08:58;14.73;;;10.23;;
74191;SDS011;62551;51.180;4.366;2022-08-16T02:11:26;12.68;;;9.65;;
74191;SDS011;62551;51.180;4.366;2022-08-16T02:13:54;18.13;;;11.23;;
74191;SDS011;62551;51.180;4.366;2022-08-16T02:16:22;14.85;;;10.65;;
74191;SDS011;62551;51.180;4.366;2022-08-16T02:18:50;15.00;;;9.95;;
74191;SDS011;62551;51.180;4.366;2022-08-16T02:21:18;14.75;;;11.15;;
74191;SDS011;62551;51.180;4.366;2022-08-16T02:23:45;14.43;;;11.18;;
74191;SDS011;62551;51.180;4.366;2022-08-16T02:26:13;12.38;;;10.95;;
74191;SDS011;62551;51.180;4.366;2022-08-16T02:28:40;14.10;;;11.15;;
74191;SDS011;62551;51.180;4.366;2022-08-16T02:31:08;14.18;;;10.98;;
74191;SDS011;62551;51.180;4.366;2022-08-16T02:33:37;13.68;;;10.65;;
74191;SDS011;62551;51.180;4.366;2022-08-16T02:36:05;15.43;;;10.73;;
74191;SDS011;62551;51.180;4.366;2022-08-16T02:38:32;13.65;;;10.80;;
74191;SDS011;62551;51.180;4.366;2022-08-16T02:41:02;15.55;;;11.15;;
74191;SDS011;62551;51.180;4.366;2022-08-16T02:43:30;12.57;;;10.90;;
74191;SDS011;62551;51.180;4.366;2022-08-16T02:45:58;13.20;;;10.43;;
74191;SDS011;62551;51.180;4.366;2022-08-16T02:48:26;15.57;;;10.98;;
74191;SDS011;62551;51.180;4.366;2022-08-16T02:50:56;17.27;;;12.35;;
74191;SDS011;62551;51.180;4.366;2022-08-16T02:53:23;15.73;;;11.10;;
74191;SDS011;62551;51.180;4.366;2022-08-16T02:55:51;14.30;;;11.00;;
74191;SDS011;62551;51.180;4.366;2022-08-16T02:58:18;13.10;;;10.93;;
74191;SDS011;62551;51.180;4.366;2022-08-16T03:00:46;16.02;;;11.05;;
74191;SDS011;62551;51.180;4.366;2022-08-16T03:03:14;12.65;;;10.30;;
74191;SDS011;62551;51.180;4.366;2022-08-16T03:05:41;15.77;;;11.35;;
74191;SDS011;62551;51.180;4.366;2022-08-16T03:08:09;15.02;;;11.23;;
74191;SDS011;62551;51.180;4.366;2022-08-16T03:10:36;13.55;;;10.40;;
74191;SDS011;62551;51.180;4.366;2022-08-16T03:13:04;14.73;;;10.75;;
74191;SDS011;62551;51.180;4.366;2022-08-16T03:15:31;14.27;;;10.63;;
74191;SDS011;62551;51.180;4.366;2022-08-16T03:17:58;15.65;;;11.40;;
74191;SDS011;62551;51.180;4.366;2022-08-16T03:20:26;15.20;;;11.45;;
74191;SDS011;62551;51.180;4.366;2022-08-16T03:22:53;17.30;;;11.63;;
74191;SDS011;62551;51.180;4.366;2022-08-16T03:25:21;11.65;;;10.38;;
74191;SDS011;62551;51.180;4.366;2022-08-16T03:27:49;15.63;;;10.80;;
74191;SDS011;62551;51.180;4.366;2022-08-16T03:30:18;13.57;;;10.70;;
74191;SDS011;62551;51.180;4.366;2022-08-16T03:32:47;15.40;;;10.95;;
74191;SDS011;62551;51.180;4.366;2022-08-16T03:35:14;14.20;;;11.15;;
74191;SDS011;62551;51.180;4.366;2022-08-16T03:37:42;14.95;;;12.00;;
74191;SDS011;62551;51.180;4.366;2022-08-16T03:40:10;14.73;;;10.63;;
74191;SDS011;62551;51.180;4.366;2022-08-16T03:42:39;13.65;;;10.50;;
74191;SDS011;62551;51.180;4.366;2022-08-16T03:45:07;13.95;;;10.88;;
74191;SDS011;62551;51.180;4.366;2022-08-16T03:47:34;13.68;;;10.80;;
74191;SDS011;62551;51.180;4.366;2022-08-16T03:50:02;15.20;;;10.70;;
74191;SDS011;62551;51.180;4.366;2022-08-16T03:52:31;13.88;;;11.45;;
74191;SDS011;62551;51.180;4.366;2022-08-16T03:54:59;14.38;;;11.45;;
74191;SDS011;62551;51.180;4.366;2022-08-16T03:57:27;13.82;;;11.38;;
74191;SDS011;62551;51.180;4.366;2022-08-16T03:59:56;15.15;;;12.13;;
74191;SDS011;62551;51.180;4.366;2022-08-16T04:02:23;15.15;;;11.40;;
74191;SDS011;62551;51.180;4.366;2022-08-16T04:04:51;15.77;;;11.15;;
74191;SDS011;62551;51.180;4.366;2022-08-16T04:07:19;14.43;;;11.05;;
74191;SDS011;62551;51.180;4.366;2022-08-16T04:09:46;13.82;;;11.55;;
74191;SDS011;62551;51.180;4.366;2022-08-16T04:12:13;14.80;;;11.85;;
74191;SDS011;62551;51.180;4.366;2022-08-16T04:14:41;13.48;;;10.23;;
74191;SDS011;62551;51.180;4.366;2022-08-16T04:17:09;15.35;;;10.80;;
74191;SDS011;62551;51.180;4.366;2022-08-16T04:19:38;14.88;;;10.98;;
74191;SDS011;62551;51.180;4.366;2022-08-16T04:22:06;14.75;;;12.30;;
74191;SDS011;62551;51.180;4.366;2022-08-16T04:24:33;16.33;;;12.27;;
74191;SDS011;62551;51.180;4.366;2022-08-16T04:27:00;15.93;;;11.13;;
74191;SDS011;62551;51.180;4.366;2022-08-16T04:29:27;14.00;;;11.50;;
74191;SDS011;62551;51.180;4.366;2022-08-16T04:31:58;16.63;;;11.00;;
74191;SDS011;62551;51.180;4.366;2022-08-16T04:34:28;14.13;;;11.45;;
74191;SDS011;62551;51.180;4.366;2022-08-16T04:36:55;14.05;;;11.32;;
74191;SDS011;62551;51.180;4.366;2022-08-16T04:39:23;15.02;;;11.15;;
74191;SDS011;62551;51.180;4.366;2022-08-16T04:41:50;15.85;;;12.80;;
74191;SDS011;62551;51.180;4.366;2022-08-16T04:44:17;16.27;;;12.00;;
74191;SDS011;62551;51.180;4.366;2022-08-16T04:46:45;14.50;;;11.00;;
74191;SDS011;62551;51.180;4.366;2022-08-16T04:49:12;16.02;;;11.45;;
74191;SDS011;62551;51.180;4.366;2022-08-16T04:51:40;14.68;;;11.52;;
74191;SDS011;62551;51.180;4.366;2022-08-16T04:54:07;16.42;;;12.18;;
74191;SDS011;62551;51.180;4.366;2022-08-16T04:56:35;17.05;;;11.52;;
74191;SDS011;62551;51.180;4.366;2022-08-16T04:59:02;19.70;;;11.95;;
74191;SDS011;62551;51.180;4.366;2022-08-16T05:01:30;18.15;;;12.25;;
74191;SDS011;62551;51.180;4.366;2022-08-16T05:03:57;16.25;;;12.32;;
74191;SDS011;62551;51.180;4.366;2022-08-16T05:06:24;18.42;;;11.73;;
74191;SDS011;62551;51.180;4.366;2022-08-16T05:08:55;16.23;;;11.70;;
74191;SDS011;62551;51.180;4.366;2022-08-16T05:11:22;18.38;;;12.00;;
74191;SDS011;62551;51.180;4.366;2022-08-16T05:13:51;17.08;;;11.95;;
74191;SDS011;62551;51.180;4.366;2022-08-16T05:16:20;15.93;;;12.13;;
74191;SDS011;62551;51.180;4.366;2022-08-16T05:18:48;17.65;;;12.60;;
74191;SDS011;62551;51.180;4.366;2022-08-16T05:21:16;16.73;;;12.75;;
74191;SDS011;62551;51.180;4.366;2022-08-16T05:23:43;17.02;;;12.98;;
74191;SDS011;62551;51.180;4.366;2022-08-16T05:26:12;16.85;;;12.60;;
74191;SDS011;62551;51.180;4.366;2022-08-16T05:28:39;14.98;;;12.57;;
74191;SDS011;62551;51.180;4.366;2022-08-16T05:31:06;15.95;;;12.27;;
74191;SDS011;62551;51.180;4.366;2022-08-16T05:33:33;18.13;;;12.18;;
74191;SDS011;62551;51.180;4.366;2022-08-16T05:36:01;18.42;;;11.95;;
74191;SDS011;62551;51.180;4.366;2022-08-16T05:38:28;17.83;;;11.98;;
74191;SDS011;62551;51.180;4.366;2022-08-16T05:40:55;21.10;;;12.18;;
74191;SDS011;62551;51.180;4.366;2022-08-16T05:43:25;18.25;;;12.20;;
74191;SDS011;62551;51.180;4.366;2022-08-16T05:45:52;18.88;;;12.50;;
74191;SDS011;62551;51.180;4.366;2022-08-16T05:48:19;19.15;;;12.63;;
74191;SDS011;62551;51.180;4.366;2022-08-16T05:50:47;18.33;;;12.52;;
74191;SDS011;62551;51.180;4.366;2022-08-16T05:53:14;19.38;;;12.57;;
74191;SDS011;62551;51.180;4.366;2022-08-16T05:55:41;17.60;;;13.10;;
74191;SDS011;62551;51.180;4.366;2022-08-16T05:58:08;16.98;;;13.68;;
74191;SDS011;62551;51.180;4.366;2022-08-16T06:00:37;16.77;;;11.80;;
74191;SDS011;62551;51.180;4.366;2022-08-16T06:03:04;16.48;;;11.60;;
74191;SDS011;62551;51.180;4.366;2022-08-16T06:05:31;17.00;;;12.80;;
74191;SDS011;62551;51.180;4.366;2022-08-16T06:07:59;16.08;;;11.70;;
74191;SDS011;62551;51.180;4.366;2022-08-16T06:10:26;15.75;;;11.48;;
74191;SDS011;62551;51.180;4.366;2022-08-16T06:12:53;16.17;;;11.60;;
74191;SDS011;62551;51.180;4.366;2022-08-16T06:15:20;18.17;;;11.77;;
74191;SDS011;62551;51.180;4.366;2022-08-16T06:17:49;17.40;;;12.00;;
74191;SDS011;62551;51.180;4.366;2022-08-16T06:20:18;15.98;;;11.70;;
74191;SDS011;62551;51.180;4.366;2022-08-16T06:22:45;14.95;;;11.73;;
74191;SDS011;62551;51.180;4.366;2022-08-16T06:25:15;16.35;;;11.63;;
74191;SDS011;62551;51.180;4.366;2022-08-16T06:27:42;17.50;;;11.75;;
74191;SDS011;62551;51.180;4.366;2022-08-16T06:30:10;16.58;;;10.63;;
74191;SDS011;62551;51.180;4.366;2022-08-16T06:32:37;18.70;;;11.05;;
74191;SDS011;62551;51.180;4.366;2022-08-16T06:35:07;17.42;;;11.95;;
74191;SDS011;62551;51.180;4.366;2022-08-16T06:37:35;14.55;;;11.60;;
74191;SDS011;62551;51.180;4.366;2022-08-16T06:40:05;18.27;;;11.60;;
74191;SDS011;62551;51.180;4.366;2022-08-16T06:42:32;17.08;;;12.27;;
74191;SDS011;62551;51.180;4.366;2022-08-16T06:45:00;17.33;;;11.70;;
74191;SDS011;62551;51.180;4.366;2022-08-16T06:47:27;13.63;;;11.00;;
74191;SDS011;62551;51.180;4.366;2022-08-16T06:49:54;19.60;;;11.35;;
74191;SDS011;62551;51.180;4.366;2022-08-16T06:52:22;16.10;;;11.27;;
74191;SDS011;62551;51.180;4.366;2022-08-16T06:54:50;16.50;;;12.40;;
74191;SDS011;62551;51.180;4.366;2022-08-16T06:57:17;15.95;;;11.48;;
74191;SDS011;62551;51.180;4.366;2022-08-16T06:59:46;14.52;;;10.85;;
74191;SDS011;62551;51.180;4.366;2022-08-16T07:02:13;15.15;;;11.50;;
74191;SDS011;62551;51.180;4.366;2022-08-16T07:04:41;15.48;;;11.50;;
74191;SDS011;62551;51.180;4.366;2022-08-16T07:07:08;15.32;;;11.10;;
74191;SDS011;62551;51.180;4.366;2022-08-16T07:09:37;16.52;;;11.23;;
74191;SDS011;62551;51.180;4.366;2022-08-16T07:12:04;19.52;;;11.73;;
74191;SDS011;62551;51.180;4.366;2022-08-16T07:14:32;14.85;;;11.43;;
74191;SDS011;62551;51.180;4.366;2022-08-16T07:16:59;13.10;;;10.05;;
74191;SDS011;62551;51.180;4.366;2022-08-16T07:19:27;15.75;;;10.88;;
74191;SDS011;62551;51.180;4.366;2022-08-16T07:21:57;13.65;;;10.60;;
74191;SDS011;62551;51.180;4.366;2022-08-16T07:24:26;14.32;;;11.15;;
74191;SDS011;62551;51.180;4.366;2022-08-16T07:26:56;16.13;;;10.73;;
74191;SDS011;62551;51.180;4.366;2022-08-16T07:29:23;13.85;;;11.40;;
74191;SDS011;62551;51.180;4.366;2022-08-16T07:31:51;17.23;;;12.40;;
74191;SDS011;62551;51.180;4.366;2022-08-16T07:34:18;19.15;;;11.68;;
74191;SDS011;62551;51.180;4.366;2022-08-16T07:36:45;18.25;;;11.57;;
74191;SDS011;62551;51.180;4.366;2022-08-16T07:39:13;15.63;;;11.20;;
74191;SDS011;62551;51.180;4.366;2022-08-16T07:41:40;15.43;;;9.45;;
74191;SDS011;62551;51.180;4.366;2022-08-16T07:44:09;15.45;;;10.55;;
74191;SDS011;62551;51.180;4.366;2022-08-16T07:46:37;14.30;;;10.68;;
74191;SDS011;62551;51.180;4.366;2022-08-16T07:49:04;15.48;;;10.80;;
74191;SDS011;62551;51.180;4.366;2022-08-16T07:51:32;16.27;;;10.48;;
74191;SDS011;62551;51.180;4.366;2022-08-16T07:54:00;13.77;;;9.82;;
74191;SDS011;62551;51.180;4.366;2022-08-16T07:56:27;12.07;;;9.52;;
74191;SDS011;62551;51.180;4.366;2022-08-16T07:58:55;15.38;;;9.90;;
74191;SDS011;62551;51.180;4.366;2022-08-16T08:01:24;16.10;;;9.57;;
74191;SDS011;62551;51.180;4.366;2022-08-16T08:03:51;16.60;;;10.07;;
74191;SDS011;62551;51.180;4.366;2022-08-16T08:06:19;13.07;;;9.50;;
74191;SDS011;62551;51.180;4.366;2022-08-16T08:08:47;14.20;;;9.35;;
74191;SDS011;62551;51.180;4.366;2022-08-16T08:11:14;14.13;;;9.20;;
74191;SDS011;62551;51.180;4.366;2022-08-16T08:13:42;12.70;;;9.27;;
74191;SDS011;62551;51.180;4.366;2022-08-16T08:16:09;12.07;;;9.25;;
74191;SDS011;62551;51.180;4.366;2022-08-16T08:18:38;12.38;;;8.40;;
74191;SDS011;62551;51.180;4.366;2022-08-16T08:21:05;12.60;;;8.27;;
74191;SDS011;62551;51.180;4.366;2022-08-16T08:23:33;11.02;;;8.90;;
74191;SDS011;62551;51.180;4.366;2022-08-16T08:26:01;15.02;;;8.02;;
74191;SDS011;62551;51.180;4.366;2022-08-16T08:28:28;11.18;;;8.48;;
74191;SDS011;62551;51.180;4.366;2022-08-16T08:30:56;12.70;;;8.85;;
74191;SDS011;62551;51.180;4.366;2022-08-16T08:33:23;12.77;;;7.55;;
74191;SDS011;62551;51.180;4.366;2022-08-16T08:35:53;12.38;;;7.57;;
74191;SDS011;62551;51.180;4.366;2022-08-16T08:38:21;10.40;;;8.25;;
74191;SDS011;62551;51.180;4.366;2022-08-16T08:40:49;9.00;;;8.05;;
74191;SDS011;62551;51.180;4.366;2022-08-16T08:43:16;12.45;;;7.95;;
74191;SDS011;62551;51.180;4.366;2022-08-16T08:45:43;11.90;;;8.15;;
74191;SDS011;62551;51.180;4.366;2022-08-16T08:48:10;11.65;;;7.88;;
74191;SDS011;62551;51.180;4.366;2022-08-16T08:50:40;10.70;;;7.47;;
74191;SDS011;62551;51.180;4.366;2022-08-16T08:53:09;10.68;;;6.75;;
74191;SDS011;62551;51.180;4.366;2022-08-16T08:55:36;10.55;;;7.13;;
74191;SDS011;62551;51.180;4.366;2022-08-16T08:58:03;9.88;;;8.15;;
74191;SDS011;62551;51.180;4.366;2022-08-16T09:00:30;12.25;;;7.47;;
74191;SDS011;62551;51.180;4.366;2022-08-16T09:02:58;14.57;;;8.30;;
74191;SDS011;62551;51.180;4.366;2022-08-16T09:05:26;11.48;;;7.28;;
74191;SDS011;62551;51.180;4.366;2022-08-16T09:07:53;8.00;;;6.80;;
74191;SDS011;62551;51.180;4.366;2022-08-16T09:10:22;10.25;;;6.85;;
74191;SDS011;62551;51.180;4.366;2022-08-16T09:12:49;11.63;;;6.97;;
74191;SDS011;62551;51.180;4.366;2022-08-16T09:15:17;8.57;;;6.75;;
74191;SDS011;62551;51.180;4.366;2022-08-16T09:17:45;8.30;;;6.97;;
74191;SDS011;62551;51.180;4.366;2022-08-16T09:20:12;9.35;;;6.55;;
74191;SDS011;62551;51.180;4.366;2022-08-16T09:22:40;7.93;;;6.20;;
74191;SDS011;62551;51.180;4.366;2022-08-16T09:25:08;9.82;;;6.18;;
74191;SDS011;62551;51.180;4.366;2022-08-16T09:27:36;7.88;;;6.20;;
74191;SDS011;62551;51.180;4.366;2022-08-16T09:30:04;8.07;;;5.72;;
74191;SDS011;62551;51.180;4.366;2022-08-16T09:32:32;8.10;;;6.55;;
74191;SDS011;62551;51.180;4.366;2022-08-16T09:35:00;10.38;;;6.07;;
74191;SDS011;62551;51.180;4.366;2022-08-16T09:37:27;9.13;;;6.75;;
74191;SDS011;62551;51.180;4.366;2022-08-16T09:39:55;7.60;;;5.97;;
74191;SDS011;62551;51.180;4.366;2022-08-16T09:42:23;10.85;;;5.68;;
74191;SDS011;62551;51.180;4.366;2022-08-16T09:44:51;10.73;;;5.93;;
74191;SDS011;62551;51.180;4.366;2022-08-16T09:47:19;6.88;;;5.45;;
74191;SDS011;62551;51.180;4.366;2022-08-16T09:49:46;7.07;;;5.60;;
74191;SDS011;62551;51.180;4.366;2022-08-16T09:52:14;9.40;;;5.75;;
74191;SDS011;62551;51.180;4.366;2022-08-16T09:54:41;9.52;;;5.07;;
74191;SDS011;62551;51.180;4.366;2022-08-16T09:57:08;11.57;;;6.15;;
74191;SDS011;62551;51.180;4.366;2022-08-16T09:59:35;9.52;;;5.53;;
74191;SDS011;62551;51.180;4.366;2022-08-16T10:02:04;5.32;;;4.63;;
74191;SDS011;62551;51.180;4.366;2022-08-16T10:04:31;8.50;;;4.80;;
74191;SDS011;62551;51.180;4.366;2022-08-16T10:06:59;9.00;;;5.40;;
74191;SDS011;62551;51.180;4.366;2022-08-16T10:09:26;5.80;;;5.15;;
74191;SDS011;62551;51.180;4.366;2022-08-16T10:11:53;5.13;;;4.63;;
74191;SDS011;62551;51.180;4.366;2022-08-16T10:14:38;5.35;;;4.57;;
74191;SDS011;62551;51.180;4.366;2022-08-16T10:17:07;5.95;;;5.35;;
74191;SDS011;62551;51.180;4.366;2022-08-16T10:19:35;5.80;;;4.20;;
74191;SDS011;62551;51.180;4.366;2022-08-16T10:22:02;6.15;;;4.15;;
74191;SDS011;62551;51.180;4.366;2022-08-16T10:24:29;9.05;;;4.82;;
74191;SDS011;62551;51.180;4.366;2022-08-16T10:26:57;6.80;;;4.63;;
74191;SDS011;62551;51.180;4.366;2022-08-16T10:29:24;7.22;;;4.50;;
74191;SDS011;62551;51.180;4.366;2022-08-16T10:31:51;5.90;;;3.80;;
74191;SDS011;62551;51.180;4.366;2022-08-16T10:34:20;4.15;;;3.60;;
74191;SDS011;62551;51.180;4.366;2022-08-16T10:36:47;5.65;;;3.80;;
74191;SDS011;62551;51.180;4.366;2022-08-16T10:39:14;4.40;;;3.63;;
74191;SDS011;62551;51.180;4.366;2022-08-16T10:41:41;4.65;;;3.47;;
74191;SDS011;62551;51.180;4.366;2022-08-16T10:44:09;6.03;;;3.70;;
74191;SDS011;62551;51.180;4.366;2022-08-16T10:46:38;4.78;;;3.47;;
74191;SDS011;62551;51.180;4.366;2022-08-16T10:49:06;4.07;;;3.35;;
74191;SDS011;62551;51.180;4.366;2022-08-16T10:51:35;4.75;;;3.58;;
74191;SDS011;62551;51.180;4.366;2022-08-16T10:54:03;4.20;;;3.45;;
74191;SDS011;62551;51.180;4.366;2022-08-16T10:56:31;6.28;;;3.42;;
74191;SDS011;62551;51.180;4.366;2022-08-16T10:58:58;5.55;;;3.90;;
74191;SDS011;62551;51.180;4.366;2022-08-16T11:01:25;4.05;;;3.15;;
74191;SDS011;62551;51.180;4.366;2022-08-16T11:03:53;4.40;;;3.30;;
74191;SDS011;62551;51.180;4.366;2022-08-16T11:06:20;6.25;;;3.33;;
74191;SDS011;62551;51.180;4.366;2022-08-16T11:08:49;4.07;;;3.28;;
74191;SDS011;62551;51.180;4.366;2022-08-16T11:11:16;3.92;;;3.22;;
74191;SDS011;62551;51.180;4.366;2022-08-16T11:13:43;4.65;;;3.30;;
74191;SDS011;62551;51.180;4.366;2022-08-16T11:16:12;6.22;;;3.65;;
74191;SDS011;62551;51.180;4.366;2022-08-16T11:18:39;5.28;;;3.33;;
74191;SDS011;62551;51.180;4.366;2022-08-16T11:21:07;3.95;;;3.55;;
74191;SDS011;62551;51.180;4.366;2022-08-16T11:23:34;4.90;;;3.55;;
74191;SDS011;62551;51.180;4.366;2022-08-16T11:26:02;6.70;;;3.53;;
74191;SDS011;62551;51.180;4.366;2022-08-16T11:28:30;5.40;;;3.42;;
74191;SDS011;62551;51.180;4.366;2022-08-16T11:30:57;4.30;;;3.40;;
74191;SDS011;62551;51.180;4.366;2022-08-16T11:33:24;5.80;;;3.97;;
74191;SDS011;62551;51.180;4.366;2022-08-16T11:35:52;5.22;;;3.45;;
74191;SDS011;62551;51.180;4.366;2022-08-16T11:38:20;5.57;;;3.70;;
74191;SDS011;62551;51.180;4.366;2022-08-16T11:40:49;4.30;;;3.53;;
74191;SDS011;62551;51.180;4.366;2022-08-16T11:43:19;5.32;;;4.10;;
74191;SDS011;62551;51.180;4.366;2022-08-16T11:45:47;5.93;;;3.75;;
74191;SDS011;62551;51.180;4.366;2022-08-16T11:48:15;5.82;;;3.88;;
74191;SDS011;62551;51.180;4.366;2022-08-16T11:50:43;6.78;;;3.92;;
74191;SDS011;62551;51.180;4.366;2022-08-16T11:53:11;5.90;;;4.20;;
74191;SDS011;62551;51.180;4.366;2022-08-16T11:55:39;5.28;;;3.47;;
74191;SDS011;62551;51.180;4.366;2022-08-16T11:58:06;4.53;;;3.65;;
74191;SDS011;62551;51.180;4.366;2022-08-16T12:00:36;4.70;;;3.75;;
74191;SDS011;62551;51.180;4.366;2022-08-16T12:03:03;9.18;;;4.03;;
74191;SDS011;62551;51.180;4.366;2022-08-16T12:05:31;4.38;;;3.30;;
74191;SDS011;62551;51.180;4.366;2022-08-16T12:07:58;6.13;;;3.75;;
74191;SDS011;62551;51.180;4.366;2022-08-16T12:10:25;5.28;;;3.55;;
74191;SDS011;62551;51.180;4.366;2022-08-16T12:12:53;6.60;;;3.40;;
74191;SDS011;62551;51.180;4.366;2022-08-16T12:15:20;6.03;;;3.58;;
74191;SDS011;62551;51.180;4.366;2022-08-16T12:17:50;5.85;;;3.70;;
74191;SDS011;62551;51.180;4.366;2022-08-16T12:20:19;5.25;;;3.42;;
74191;SDS011;62551;51.180;4.366;2022-08-16T12:22:50;4.40;;;3.25;;
74191;SDS011;62551;51.180;4.366;2022-08-16T12:25:18;8.70;;;3.78;;
74191;SDS011;62551;51.180;4.366;2022-08-16T12:27:46;3.97;;;3.55;;
74191;SDS011;62551;51.180;4.366;2022-08-16T12:30:15;5.40;;;3.90;;
74191;SDS011;62551;51.180;4.366;2022-08-16T12:32:42;4.00;;;3.63;;
74191;SDS011;62551;51.180;4.366;2022-08-16T12:35:12;4.57;;;3.97;;
74191;SDS011;62551;51.180;4.366;2022-08-16T12:37:41;6.47;;;4.03;;
74191;SDS011;62551;51.180;4.366;2022-08-16T12:40:09;5.15;;;3.67;;
74191;SDS011;62551;51.180;4.366;2022-08-16T12:42:37;5.03;;;4.28;;
74191;SDS011;62551;51.180;4.366;2022-08-16T12:45:05;7.88;;;4.15;;
74191;SDS011;62551;51.180;4.366;2022-08-16T12:47:33;4.65;;;4.25;;
74191;SDS011;62551;51.180;4.366;2022-08-16T12:50:19;4.78;;;4.28;;
74191;SDS011;62551;51.180;4.366;2022-08-16T12:52:46;6.55;;;3.63;;
74191;SDS011;62551;51.180;4.366;2022-08-16T12:55:14;5.60;;;3.97;;
74191;SDS011;62551;51.180;4.366;2022-08-16T12:57:41;4.93;;;3.60;;
74191;SDS011;62551;51.180;4.366;2022-08-16T13:00:10;5.82;;;4.20;;
74191;SDS011;62551;51.180;4.366;2022-08-16T13:02:40;4.88;;;4.05;;
74191;SDS011;62551;51.180;4.366;2022-08-16T13:05:07;5.32;;;4.57;;
74191;SDS011;62551;51.180;4.366;2022-08-16T13:07:38;4.28;;;3.88;;
74191;SDS011;62551;51.180;4.366;2022-08-16T13:10:06;6.10;;;3.97;;
74191;SDS011;62551;51.180;4.366;2022-08-16T13:12:38;4.72;;;3.53;;
74191;SDS011;62551;51.180;4.366;2022-08-16T13:15:07;7.35;;;3.78;;
74191;SDS011;62551;51.180;4.366;2022-08-16T13:17:35;6.82;;;3.58;;
74191;SDS011;62551;51.180;4.366;2022-08-16T13:20:02;5.18;;;3.60;;
74191;SDS011;62551;51.180;4.366;2022-08-16T13:22:31;4.78;;;3.60;;
74191;SDS011;62551;51.180;4.366;2022-08-16T13:25:03;5.70;;;3.80;;
74191;SDS011;62551;51.180;4.366;2022-08-16T13:27:30;5.50;;;3.70;;
74191;SDS011;62551;51.180;4.366;2022-08-16T13:29:58;5.22;;;3.47;;
74191;SDS011;62551;51.180;4.366;2022-08-16T13:32:25;5.72;;;3.40;;
74191;SDS011;62551;51.180;4.366;2022-08-16T13:34:52;5.68;;;3.60;;
74191;SDS011;62551;51.180;4.366;2022-08-16T13:37:19;4.38;;;3.10;;
74191;SDS011;62551;51.180;4.366;2022-08-16T13:39:46;6.47;;;3.65;;
74191;SDS011;62551;51.180;4.366;2022-08-16T13:42:15;3.63;;;3.30;;
74191;SDS011;62551;51.180;4.366;2022-08-16T13:44:44;4.93;;;3.53;;
74191;SDS011;62551;51.180;4.366;2022-08-16T13:47:12;4.57;;;3.90;;
74191;SDS011;62551;51.180;4.366;2022-08-16T13:49:39;5.85;;;3.63;;
74191;SDS011;62551;51.180;4.366;2022-08-16T13:52:07;4.80;;;3.38;;
74191;SDS011;62551;51.180;4.366;2022-08-16T13:54:34;4.70;;;3.63;;
74191;SDS011;62551;51.180;4.366;2022-08-16T13:57:01;6.57;;;3.40;;
74191;SDS011;62551;51.180;4.366;2022-08-16T13:59:30;5.20;;;3.92;;
74191;SDS011;62551;51.180;4.366;2022-08-16T14:01:57;4.45;;;3.65;;
74191;SDS011;62551;51.180;4.366;2022-08-16T14:04:25;6.65;;;3.42;;
74191;SDS011;62551;51.180;4.366;2022-08-16T14:06:54;6.90;;;3.42;;
74191;SDS011;62551;51.180;4.366;2022-08-16T14:09:21;4.22;;;3.22;;
74191;SDS011;62551;51.180;4.366;2022-08-16T14:11:48;4.80;;;3.33;;
74191;SDS011;62551;51.180;4.366;2022-08-16T14:14:15;8.45;;;3.30;;
74191;SDS011;62551;51.180;4.366;2022-08-16T14:16:44;7.18;;;4.18;;
74191;SDS011;62551;51.180;4.366;2022-08-16T14:19:11;5.18;;;3.60;;
74191;SDS011;62551;51.180;4.366;2022-08-16T14:21:42;4.43;;;3.25;;
74191;SDS011;62551;51.180;4.366;2022-08-16T14:24:09;6.18;;;3.55;;
74191;SDS011;62551;51.180;4.366;2022-08-16T14:26:38;5.85;;;3.53;;
74191;SDS011;62551;51.180;4.366;2022-08-16T14:29:05;3.72;;;3.42;;
74191;SDS011;62551;51.180;4.366;2022-08-16T14:31:32;5.68;;;3.20;;
74191;SDS011;62551;51.180;4.366;2022-08-16T14:34:01;3.55;;;3.00;;
74191;SDS011;62551;51.180;4.366;2022-08-16T14:36:28;5.97;;;3.13;;